createdAt,value
2022-09-25T00:02:08.160Z,12.43
2022-09-25T00:04:56.493Z,12.40
2022-09-25T00:07:44.864Z,12.39
2022-09-25T00:10:34.884Z,12.35
2022-09-25T00:13:23.880Z,12.29
2022-09-25T00:16:15.411Z,12.29
2022-09-25T00:19:21.249Z,12.26
2022-09-25T00:22:09.576Z,12.21
2022-09-25T00:24:58.119Z,12.21
2022-09-25T00:30:41.662Z,12.16
2022-09-25T00:33:29.969Z,12.01
2022-09-25T00:36:18.730Z,11.97
2022-09-25T00:39:07.555Z,11.86
2022-09-25T00:41:55.870Z,11.99
2022-09-25T00:45:00.986Z,12.09
2022-09-25T00:47:58.756Z,12.13
2022-09-25T00:50:53.113Z,12.18
2022-09-25T00:53:42.135Z,12.02
2022-09-25T00:56:33.839Z,11.73
2022-09-25T00:59:26.139Z,11.71
2022-09-25T01:02:30.785Z,11.62
2022-09-25T01:05:22.386Z,11.77
2022-09-25T01:08:14.317Z,11.84
2022-09-25T01:11:02.937Z,11.90
2022-09-25T01:13:54.469Z,11.91
2022-09-25T01:16:48.261Z,11.93
2022-09-25T01:19:53.198Z,12.13
2022-09-25T01:22:52.476Z,12.16
2022-09-25T01:25:56.515Z,12.17
2022-09-25T01:29:00.453Z,12.15
2022-09-25T01:31:57.044Z,12.18
2022-09-25T01:34:54.118Z,12.21
2022-09-25T01:37:46.663Z,12.20
2022-09-25T01:40:37.117Z,12.20
2022-09-25T01:43:32.506Z,12.16
2022-09-25T01:46:24.658Z,12.09
2022-09-25T01:49:19.441Z,12.13
2022-09-25T01:52:13.298Z,12.19
2022-09-25T01:55:12.631Z,12.21
2022-09-25T01:58:09.079Z,12.26
2022-09-25T02:01:03.347Z,12.23
2022-09-25T02:03:57.938Z,12.27
2022-09-25T02:06:49.662Z,12.30
2022-09-25T02:09:42.107Z,12.32
2022-09-25T02:12:35.444Z,12.35
2022-09-25T02:15:30.818Z,12.29
2022-09-25T02:18:38.756Z,12.26
2022-09-25T02:21:38.087Z,12.34
2022-09-25T02:24:32.320Z,12.38
2022-09-25T02:27:21.025Z,12.46
2022-09-25T02:30:11.654Z,12.50
2022-09-25T02:32:59.896Z,12.56
2022-09-25T02:35:48.566Z,12.61
2022-09-25T02:38:38.207Z,12.63
2022-09-25T02:41:39.754Z,12.63
2022-09-25T02:44:39.978Z,12.60
2022-09-25T02:47:36.774Z,12.61
2022-09-25T02:50:28.346Z,12.64
2022-09-25T02:53:21.898Z,12.62
2022-09-25T02:56:15.695Z,12.59
2022-09-25T02:59:09.057Z,12.59
2022-09-25T03:01:58.909Z,12.57
2022-09-25T03:04:49.280Z,12.57
2022-09-25T03:07:52.538Z,12.54
2022-09-25T03:10:41.983Z,12.58
2022-09-25T03:13:34.217Z,12.58
2022-09-25T03:16:32.624Z,12.58
2022-09-25T03:19:21.124Z,12.62
2022-09-25T03:22:09.441Z,12.64
2022-09-25T03:24:57.674Z,12.67
2022-09-25T03:27:48.074Z,12.62
2022-09-25T03:30:38.761Z,12.62
2022-09-25T03:33:28.571Z,12.64
2022-09-25T03:36:19.629Z,12.62
2022-09-25T03:39:10.891Z,12.58
2022-09-25T03:41:59.224Z,12.62
2022-09-25T03:44:47.568Z,12.65
2022-09-25T03:47:37.254Z,12.66
2022-09-25T03:50:25.580Z,12.69
2022-09-25T03:53:13.906Z,12.70
2022-09-25T03:56:03.068Z,12.72
2022-09-25T03:58:54.377Z,12.74
2022-09-25T04:01:42.794Z,12.75
2022-09-25T04:04:32.661Z,12.75
2022-09-25T04:07:21.026Z,12.74
2022-09-25T04:10:10.247Z,12.75
2022-09-25T04:12:58.689Z,12.65
2022-09-25T04:15:47.059Z,12.53
2022-09-25T04:18:35.512Z,12.60
2022-09-25T04:21:25.335Z,12.64
2022-09-25T04:24:31.187Z,12.67
2022-09-25T04:27:21.855Z,12.62
2022-09-25T04:30:11.631Z,12.66
2022-09-25T04:33:17.968Z,12.64
2022-09-25T04:36:07.218Z,12.63
2022-09-25T04:38:56.995Z,12.55
2022-09-25T04:41:45.261Z,12.55
2022-09-25T04:44:33.588Z,12.58
2022-09-25T04:47:22.618Z,12.60
2022-09-25T04:50:11.025Z,12.64
2022-09-25T04:53:00.555Z,12.68
2022-09-25T04:55:50.256Z,12.76
2022-09-25T04:58:38.750Z,12.81
2022-09-25T05:01:27.120Z,12.88
2022-09-25T05:04:16.292Z,12.94
2022-09-25T05:07:05.010Z,12.99
2022-09-25T05:09:53.777Z,13.03
2022-09-25T05:12:43.711Z,13.12
2022-09-25T05:15:34.249Z,13.18
2022-09-25T05:18:24.322Z,13.22
2022-09-25T05:21:12.741Z,13.27
2022-09-25T05:24:01.214Z,13.31
2022-09-25T05:26:49.551Z,13.34
2022-09-25T05:29:40.266Z,13.40
2022-09-25T05:32:28.701Z,13.43
2022-09-25T05:35:18.291Z,13.47
2022-09-25T05:38:06.870Z,13.47
2022-09-25T05:40:55.872Z,13.44
2022-09-25T05:43:47.664Z,13.42
2022-09-25T05:46:37.847Z,13.54
2022-09-25T05:49:26.186Z,13.63
2022-09-25T05:52:14.524Z,13.69
2022-09-25T05:55:03.749Z,13.76
2022-09-25T05:57:52.394Z,13.80
2022-09-25T06:00:40.735Z,13.78
2022-09-25T06:03:30.822Z,13.84
2022-09-25T06:06:21.456Z,13.97
2022-09-25T06:09:13.810Z,14.11
2022-09-25T06:12:02.542Z,14.20
2022-09-25T06:14:51.457Z,14.32
2022-09-25T06:17:40.205Z,14.34
2022-09-25T06:20:29.922Z,14.32
2022-09-25T06:23:18.648Z,14.42
2022-09-25T06:26:09.513Z,14.36
2022-09-25T06:29:03.261Z,14.35
2022-09-25T06:31:53.327Z,14.64
2022-09-25T06:34:41.730Z,14.83
2022-09-25T06:37:31.788Z,14.97
2022-09-25T06:40:20.412Z,15.07
2022-09-25T06:43:11.467Z,15.08
2022-09-25T06:46:03.952Z,15.13
2022-09-25T06:48:54.301Z,15.07
2022-09-25T06:51:42.934Z,14.96
2022-09-25T06:54:32.814Z,14.95
2022-09-25T06:57:21.166Z,14.94
2022-09-25T07:00:10.743Z,15.16
2022-09-25T07:03:16.522Z,15.10
2022-09-25T07:06:07.143Z,15.28
2022-09-25T07:08:57.208Z,15.42
2022-09-25T07:11:48.799Z,15.35
2022-09-25T07:14:38.662Z,15.28
2022-09-25T07:17:27.125Z,15.41
2022-09-25T07:20:15.936Z,15.71
2022-09-25T07:23:04.362Z,15.81
2022-09-25T07:25:52.873Z,15.74
2022-09-25T07:28:44.648Z,15.89
2022-09-25T07:31:34.877Z,16.06
2022-09-25T07:34:23.473Z,16.10
2022-09-25T07:37:12.193Z,16.04
2022-09-25T07:40:00.604Z,16.17
2022-09-25T07:42:49.042Z,16.16
2022-09-25T07:45:38.850Z,16.19
2022-09-25T07:48:27.527Z,16.38
2022-09-25T07:51:17.184Z,16.25
2022-09-25T07:54:05.739Z,16.05
2022-09-25T07:56:54.467Z,16.30
2022-09-25T07:59:42.788Z,16.33
2022-09-25T08:02:32.561Z,16.37
2022-09-25T08:05:20.884Z,16.50
2022-09-25T08:08:10.116Z,16.29
2022-09-25T08:11:02.806Z,16.42
2022-09-25T08:13:51.230Z,16.52
2022-09-25T08:16:39.574Z,16.60
2022-09-25T08:19:29.971Z,16.61
2022-09-25T08:22:18.322Z,16.47
2022-09-25T08:25:07.297Z,16.66
2022-09-25T08:27:55.734Z,16.47
2022-09-25T08:30:44.688Z,16.47
2022-09-25T08:33:34.603Z,16.31
2022-09-25T08:36:24.477Z,16.10
2022-09-25T08:39:12.845Z,16.40
2022-09-25T08:42:02.032Z,15.97
2022-09-25T08:45:21.457Z,16.12
2022-09-25T08:48:38.344Z,16.18
2022-09-25T08:51:29.682Z,16.17
2022-09-25T08:54:23.953Z,15.99
2022-09-25T08:57:20.136Z,16.05
2022-09-25T09:00:21.304Z,16.23
2022-09-25T09:03:12.125Z,16.25
2022-09-25T09:06:03.963Z,16.22
2022-09-25T09:08:59.515Z,16.41
2022-09-25T09:11:52.585Z,16.50
2022-09-25T09:14:45.793Z,16.68
2022-09-25T09:17:42.563Z,16.78
2022-09-25T09:20:39.043Z,16.90
2022-09-25T09:23:35.378Z,17.01
2022-09-25T09:26:33.830Z,17.07
2022-09-25T09:29:39.099Z,16.99
2022-09-25T09:32:43.122Z,16.96
2022-09-25T09:35:37.636Z,16.98
2022-09-25T09:38:34.264Z,16.79
2022-09-25T09:41:35.018Z,16.77
2022-09-25T09:44:53.631Z,16.56
2022-09-25T09:47:50.308Z,16.57
2022-09-25T09:50:51.357Z,16.67
2022-09-25T09:53:45.383Z,16.72
2022-09-25T09:56:37.188Z,16.70
2022-09-25T09:59:31.576Z,16.68
2022-09-25T10:02:31.571Z,16.63
2022-09-25T10:05:26.781Z,16.68
2022-09-25T10:08:15.336Z,16.70
2022-09-25T10:11:11.184Z,16.65
2022-09-25T10:14:05.166Z,16.64
2022-09-25T10:16:54.883Z,16.63
2022-09-25T10:19:49.290Z,16.66
2022-09-25T10:22:41.645Z,16.73
2022-09-25T10:25:40.920Z,16.65
2022-09-25T10:28:32.365Z,16.70
2022-09-25T10:31:22.452Z,16.62
2022-09-25T10:34:22.503Z,16.83
2022-09-25T10:37:21.238Z,16.88
2022-09-25T10:40:25.645Z,16.91
2022-09-25T10:43:20.662Z,16.85
2022-09-25T10:46:14.082Z,16.97
2022-09-25T10:49:37.685Z,16.92
2022-09-25T10:52:26.073Z,17.04
2022-09-25T10:55:17.502Z,17.22
2022-09-25T10:58:15.120Z,17.11
2022-09-25T11:01:05.017Z,17.17
2022-09-25T11:03:56.650Z,17.33
2022-09-25T11:06:49.283Z,17.47
2022-09-25T11:09:44.038Z,17.41
2022-09-25T11:12:33.236Z,17.25
2022-09-25T11:15:25.837Z,17.18
2022-09-25T11:18:36.040Z,17.01
2022-09-25T11:21:31.660Z,17.09
2022-09-25T11:24:28.107Z,17.26
2022-09-25T11:27:21.785Z,17.08
2022-09-25T11:30:14.362Z,17.17
2022-09-25T11:33:07.425Z,17.31
2022-09-25T11:36:01.867Z,17.69
2022-09-25T11:39:13.495Z,17.82
2022-09-25T11:42:09.436Z,17.96
2022-09-25T11:45:03.614Z,18.12
2022-09-25T11:47:58.721Z,18.18
2022-09-25T11:50:57.632Z,17.89
2022-09-25T11:54:07.275Z,17.97
2022-09-25T11:57:11.920Z,18.19
2022-09-25T12:00:09.655Z,18.37
2022-09-25T12:03:12.229Z,18.35
2022-09-25T12:06:20.179Z,18.56
2022-09-25T12:09:23.429Z,18.57
2022-09-25T12:12:24.237Z,18.19
2022-09-25T12:15:20.659Z,18.17
2022-09-25T12:18:18.776Z,18.42
2022-09-25T12:21:11.821Z,18.46
2022-09-25T12:24:08.943Z,18.59
2022-09-25T12:27:06.364Z,18.53
2022-09-25T12:30:11.686Z,18.66
2022-09-25T12:33:15.829Z,18.51
2022-09-25T12:36:10.286Z,18.84
2022-09-25T12:39:08.886Z,19.04
2022-09-25T12:42:06.289Z,19.07
2022-09-25T12:45:01.166Z,19.25
2022-09-25T12:48:12.035Z,19.12
2022-09-25T12:51:07.289Z,19.22
2022-09-25T12:54:00.433Z,19.22
2022-09-25T12:56:54.260Z,19.20
2022-09-25T12:59:46.933Z,19.16
2022-09-25T13:02:41.943Z,19.04
2022-09-25T13:05:35.106Z,19.34
2022-09-25T13:08:30.323Z,19.21
2022-09-25T13:11:30.123Z,19.27
2022-09-25T13:14:34.675Z,19.42
2022-09-25T13:17:24.043Z,19.22
2022-09-25T13:20:50.272Z,19.43
2022-09-25T13:23:42.089Z,19.42
2022-09-25T13:26:31.775Z,19.42
2022-09-25T13:29:25.227Z,19.32
2022-09-25T13:32:19.074Z,19.26
2022-09-25T13:35:19.758Z,19.31
2022-09-25T13:38:36.605Z,19.37
2022-09-25T13:41:24.176Z,19.33
2022-09-25T13:44:52.628Z,19.44
2022-09-25T13:48:07.097Z,19.38
2022-09-25T13:51:35.778Z,19.10
2022-09-25T13:54:28.985Z,19.02
2022-09-25T13:57:17.939Z,18.94
2022-09-25T14:00:15.595Z,19.07
2022-09-25T14:03:04.938Z,18.99
2022-09-25T14:05:53.252Z,18.87
2022-09-25T14:08:44.034Z,18.74
2022-09-25T14:11:37.868Z,18.69
2022-09-25T14:14:31.403Z,18.51
2022-09-25T14:17:21.799Z,18.54
2022-09-25T14:20:31.251Z,18.60
2022-09-25T14:23:26.293Z,18.40
2022-09-25T14:26:21.720Z,18.46
2022-09-25T14:29:18.610Z,18.32
2022-09-25T14:32:43.201Z,18.35
2022-09-25T14:35:37.068Z,18.41
2022-09-25T14:39:03.251Z,18.39
2022-09-25T14:42:18.867Z,18.17
2022-09-25T14:45:40.235Z,17.87
2022-09-25T14:48:35.091Z,17.69
2022-09-25T14:51:26.904Z,17.68
2022-09-25T14:54:19.967Z,17.58
2022-09-25T14:57:12.088Z,17.66
2022-09-25T15:00:03.461Z,17.65
2022-09-25T15:02:56.418Z,17.54
2022-09-25T15:05:47.711Z,17.68
2022-09-25T15:08:38.691Z,17.77
2022-09-25T15:11:29.996Z,17.94
2022-09-25T15:14:20.857Z,17.81
2022-09-25T15:17:32.928Z,17.73
2022-09-25T15:20:25.884Z,17.76
2022-09-25T15:23:19.612Z,17.77
2022-09-25T15:26:15.025Z,17.78
2022-09-25T15:29:03.624Z,17.63
2022-09-25T15:31:52.703Z,17.64
2022-09-25T15:34:41.895Z,17.14
2022-09-25T15:37:31.796Z,16.83
2022-09-25T15:40:25.760Z,16.93
2022-09-25T15:43:16.264Z,16.77
2022-09-25T15:46:37.404Z,16.72
2022-09-25T15:49:31.236Z,16.80
2022-09-25T15:52:23.935Z,16.98
2022-09-25T15:55:15.278Z,17.13
2022-09-25T15:58:08.573Z,17.21
2022-09-25T16:01:18.845Z,17.27
2022-09-25T16:04:27.306Z,17.34
2022-09-25T16:07:29.004Z,17.31
2022-09-25T16:10:33.225Z,17.30
2022-09-25T16:13:23.750Z,17.35
2022-09-25T16:16:19.703Z,17.40
2022-09-25T16:19:28.482Z,17.45
2022-09-25T16:22:23.972Z,17.46
2022-09-25T16:25:32.276Z,17.45
2022-09-25T16:28:25.566Z,17.38
2022-09-25T16:31:14.120Z,17.26
2022-09-25T16:34:03.230Z,17.30
2022-09-25T16:36:51.790Z,17.19
2022-09-25T16:39:40.704Z,17.22
2022-09-25T16:42:39.538Z,17.16
2022-09-25T16:45:33.270Z,17.12
2022-09-25T16:48:36.341Z,17.15
2022-09-25T16:51:26.992Z,17.06
2022-09-25T16:54:18.467Z,17.00
2022-09-25T16:57:06.901Z,17.03
2022-09-25T16:59:55.410Z,17.01
2022-09-25T17:02:47.615Z,17.08
2022-09-25T17:05:36.278Z,17.11
2022-09-25T17:08:25.260Z,17.05
2022-09-25T17:11:14.284Z,17.02
2022-09-25T17:14:02.938Z,16.93
2022-09-25T17:16:51.926Z,16.94
2022-09-25T17:19:41.901Z,16.84
2022-09-25T17:22:31.189Z,16.87
2022-09-25T17:25:25.741Z,16.90
2022-09-25T17:28:15.438Z,16.84
2022-09-25T17:31:04.874Z,16.83
2022-09-25T17:33:53.335Z,16.81
2022-09-25T17:36:43.230Z,16.82
2022-09-25T17:39:31.626Z,16.79
2022-09-25T17:42:19.965Z,16.72
2022-09-25T17:45:21.841Z,16.66
2022-09-25T17:48:11.232Z,16.66
2022-09-25T17:51:01.223Z,16.64
2022-09-25T17:53:52.854Z,16.64
2022-09-25T17:56:42.769Z,16.60
2022-09-25T17:59:31.296Z,16.59
2022-09-25T18:02:20.019Z,16.50
2022-09-25T18:05:12.546Z,16.44
2022-09-25T18:08:00.925Z,16.40
2022-09-25T18:10:54.772Z,16.35
2022-09-25T18:13:43.652Z,16.29
2022-09-25T18:16:33.577Z,16.25
2022-09-25T18:19:39.785Z,16.31
2022-09-25T18:22:28.616Z,16.37
2022-09-25T18:25:17.016Z,16.40
2022-09-25T18:28:06.980Z,16.40
2022-09-25T18:30:55.422Z,16.42
2022-09-25T18:33:47.287Z,16.43
2022-09-25T18:36:36.167Z,16.38
2022-09-25T18:39:24.613Z,16.41
2022-09-25T18:42:13.020Z,16.44
2022-09-25T18:45:03.816Z,16.34
2022-09-25T18:47:52.196Z,16.40
2022-09-25T18:50:41.833Z,16.40
2022-09-25T18:53:30.447Z,16.38
2022-09-25T18:56:19.054Z,16.37
2022-09-25T18:59:07.855Z,16.33
2022-09-25T19:01:58.477Z,16.32
2022-09-25T19:04:47.747Z,16.32
2022-09-25T19:07:38.089Z,16.32
2022-09-25T19:10:26.475Z,16.28
2022-09-25T19:13:15.011Z,16.26
2022-09-25T19:16:04.177Z,16.28
2022-09-25T19:18:54.023Z,16.18
2022-09-25T19:21:42.574Z,16.16
2022-09-25T19:24:37.729Z,16.17
2022-09-25T19:27:29.091Z,16.16
2022-09-25T19:30:17.889Z,16.15
2022-09-25T19:33:06.295Z,16.16
2022-09-25T19:35:59.550Z,16.16
2022-09-25T19:38:48.617Z,16.14
2022-09-25T19:41:39.187Z,16.14
2022-09-25T19:44:27.645Z,16.14
2022-09-25T19:47:16.663Z,16.14
2022-09-25T19:50:08.820Z,16.14
2022-09-25T19:52:59.822Z,16.14
2022-09-25T19:55:52.605Z,16.14
2022-09-25T19:58:41.488Z,16.13
2022-09-25T20:01:30.664Z,16.11
2022-09-25T20:04:19.350Z,16.12
2022-09-25T20:07:07.765Z,16.08
2022-09-25T20:09:57.627Z,16.01
2022-09-25T20:12:46.085Z,16.00
2022-09-25T20:15:34.831Z,15.96
2022-09-25T20:18:23.383Z,15.95
2022-09-25T20:21:13.947Z,15.95
2022-09-25T20:24:04.312Z,15.99
2022-09-25T20:26:54.235Z,15.98
2022-09-25T20:29:42.668Z,15.99
2022-09-25T20:32:31.873Z,15.96
2022-09-25T20:35:20.787Z,15.95
2022-09-25T20:38:11.111Z,15.95
2022-09-25T20:41:00.813Z,15.88
2022-09-25T20:43:52.769Z,15.84
2022-09-25T20:46:42.235Z,15.84
2022-09-25T20:49:31.350Z,15.84
2022-09-25T20:52:19.749Z,15.78
2022-09-25T20:55:08.761Z,15.68
2022-09-25T20:57:57.103Z,15.72
2022-09-25T21:00:47.421Z,15.68
2022-09-25T21:03:38.313Z,15.67
2022-09-25T21:06:28.745Z,15.63
2022-09-25T21:09:21.143Z,15.61
2022-09-25T21:12:09.503Z,15.56
2022-09-25T21:14:57.884Z,15.54
2022-09-25T21:17:47.669Z,15.53
2022-09-25T21:20:36.947Z,15.50
2022-09-25T21:23:25.283Z,15.48
2022-09-25T21:26:15.130Z,15.47
2022-09-25T21:29:05.935Z,15.42
2022-09-25T21:31:54.846Z,15.43
2022-09-25T21:34:44.576Z,15.38
2022-09-25T21:37:32.997Z,15.35
2022-09-25T21:40:21.446Z,15.30
2022-09-25T21:43:11.269Z,15.28
2022-09-25T21:46:01.488Z,15.23
2022-09-25T21:48:52.258Z,15.18
2022-09-25T21:51:45.385Z,15.13
2022-09-25T21:54:33.818Z,15.08
2022-09-25T21:57:23.112Z,15.02
2022-09-25T22:00:12.837Z,14.98
2022-09-25T22:03:01.311Z,14.93
2022-09-25T22:05:50.028Z,14.92
2022-09-25T22:08:42.541Z,14.87
2022-09-25T22:11:31.534Z,14.87
2022-09-25T22:14:20.551Z,14.86
2022-09-25T22:17:08.959Z,14.86
2022-09-25T22:19:58.893Z,14.85
2022-09-25T22:22:50.388Z,14.78
2022-09-25T22:25:40.086Z,13.87
2022-09-25T22:28:28.927Z,13.94
2022-09-25T22:31:19.538Z,13.89
2022-09-25T22:34:14.703Z,13.83
2022-09-25T22:37:03.036Z,14.06
2022-09-25T22:39:51.433Z,14.30
2022-09-25T22:42:41.107Z,14.43
2022-09-25T22:45:30.036Z,14.51
2022-09-25T22:48:18.724Z,14.59
2022-09-25T22:51:08.897Z,14.64
2022-09-25T22:53:57.371Z,14.66
2022-09-25T22:56:45.912Z,14.67
2022-09-25T22:59:35.679Z,14.62
2022-09-25T23:02:24.142Z,14.66
2022-09-25T23:05:12.840Z,14.65
2022-09-25T23:08:01.300Z,14.65
2022-09-25T23:11:06.630Z,14.67
2022-09-25T23:13:58.920Z,14.68
2022-09-25T23:16:50.357Z,14.64
2022-09-25T23:19:39.346Z,14.64
2022-09-25T23:22:27.784Z,14.61
2022-09-25T23:25:16.123Z,14.45
2022-09-25T23:28:04.695Z,14.48
2022-09-25T23:30:53.188Z,14.42
2022-09-25T23:33:43.981Z,14.27
2022-09-25T23:36:32.737Z,13.94
2022-09-25T23:39:21.581Z,13.64
2022-09-25T23:42:09.960Z,13.43
2022-09-25T23:44:58.284Z,13.44
2022-09-25T23:47:46.602Z,13.69
2022-09-25T23:50:36.367Z,13.92
2022-09-25T23:53:24.703Z,14.00
2022-09-25T23:56:15.564Z,14.07
2022-09-25T23:59:06.014Z,14.12
